sensor_id;sensor_type;location;lat;lon;timestamp;pressure;altitude;pressure_sealevel;temperature;humidity
3260;BME280;22469;48.150;14.004;2023-03-26T00:01:37;97579.88;;;12.99;55.44
3260;BME280;22469;48.150;14.004;2023-03-26T00:04:06;97578.09;;;13.01;55.17
3260;BME280;22469;48.150;14.004;2023-03-26T00:06:35;97578.03;;;13.02;55.12
3260;BME280;22469;48.150;14.004;2023-03-26T00:09:08;97578.03;;;13.02;55.27
3260;BME280;22469;48.150;14.004;2023-03-26T00:11:39;97577.94;;;13.04;55.06
3260;BME280;22469;48.150;14.004;2023-03-26T00:14:06;97576.34;;;13.01;54.98
3260;BME280;22469;48.150;14.004;2023-03-26T00:16:34;97564.22;;;13.03;55.25
3260;BME280;22469;48.150;14.004;2023-03-26T00:19:02;97566.81;;;13.03;54.77
3260;BME280;22469;48.150;14.004;2023-03-26T00:21:30;97574.53;;;13.03;55.15
3260;BME280;22469;48.150;14.004;2023-03-26T00:23:59;97556.72;;;12.99;55.00
3260;BME280;22469;48.150;14.004;2023-03-26T00:26:31;97567.00;;;12.99;54.45
3260;BME280;22469;48.150;14.004;2023-03-26T00:29:00;97563.75;;;12.95;54.47
3260;BME280;22469;48.150;14.004;2023-03-26T00:31:29;97566.34;;;12.95;54.83
3260;BME280;22469;48.150;14.004;2023-03-26T00:33:57;97556.66;;;13.00;54.27
3260;BME280;22469;48.150;14.004;2023-03-26T00:36:25;97560.06;;;12.84;54.02
3260;BME280;22469;48.150;14.004;2023-03-26T00:38:53;97560.97;;;12.83;53.47
3260;BME280;22469;48.150;14.004;2023-03-26T00:41:23;97562.03;;;12.42;53.64
3260;BME280;22469;48.150;14.004;2023-03-26T00:43:55;97549.38;;;12.38;54.46
3260;BME280;22469;48.150;14.004;2023-03-26T00:46:28;97557.09;;;12.00;54.98
3260;BME280;22469;48.150;14.004;2023-03-26T00:48:57;97562.63;;;12.47;53.84
3260;BME280;22469;48.150;14.004;2023-03-26T00:51:26;97558.69;;;12.76;53.53
3260;BME280;22469;48.150;14.004;2023-03-26T00:53:55;97556.41;;;12.70;53.06
3260;BME280;22469;48.150;14.004;2023-03-26T00:56:24;97557.16;;;12.72;52.88
3260;BME280;22469;48.150;14.004;2023-03-26T00:58:51;97545.81;;;12.76;52.46
3260;BME280;22469;48.150;14.004;2023-03-26T01:01:22;97545.06;;;12.38;52.96
3260;BME280;22469;48.150;14.004;2023-03-26T01:03:56;97548.41;;;12.57;52.58
3260;BME280;22469;48.150;14.004;2023-03-26T01:06:36;97542.44;;;12.57;52.57
3260;BME280;22469;48.150;14.004;2023-03-26T01:09:16;97542.00;;;12.49;52.59
3260;BME280;22469;48.150;14.004;2023-03-26T01:11:46;97534.31;;;12.84;51.83
3260;BME280;22469;48.150;14.004;2023-03-26T01:14:20;97532.19;;;12.74;51.60
3260;BME280;22469;48.150;14.004;2023-03-26T01:16:52;97528.19;;;12.69;51.82
3260;BME280;22469;48.150;14.004;2023-03-26T01:19:31;97528.34;;;12.83;51.90
3260;BME280;22469;48.150;14.004;2023-03-26T01:22:06;97529.31;;;12.80;52.15
3260;BME280;22469;48.150;14.004;2023-03-26T01:24:40;97521.88;;;12.74;51.77
3260;BME280;22469;48.150;14.004;2023-03-26T01:35:47;97516.72;;;12.57;53.08
3260;BME280;22469;48.150;14.004;2023-03-26T01:41:41;97526.31;;;12.53;52.97
3260;BME280;22469;48.150;14.004;2023-03-26T01:44:39;97521.19;;;12.71;52.39
3260;BME280;22469;48.150;14.004;2023-03-26T01:47:11;97526.13;;;12.58;53.15
3260;BME280;22469;48.150;14.004;2023-03-26T01:49:39;97515.75;;;12.60;53.41
3260;BME280;22469;48.150;14.004;2023-03-26T01:52:15;97517.25;;;12.64;52.68
3260;BME280;22469;48.150;14.004;2023-03-26T01:54:45;97522.59;;;12.42;53.03
3260;BME280;22469;48.150;14.004;2023-03-26T02:03:04;97514.44;;;12.15;53.93
3260;BME280;22469;48.150;14.004;2023-03-26T02:08:56;97507.16;;;12.05;54.50
3260;BME280;22469;48.150;14.004;2023-03-26T02:11:26;97511.13;;;12.49;53.46
3260;BME280;22469;48.150;14.004;2023-03-26T02:14:03;97497.44;;;12.83;52.61
3260;BME280;22469;48.150;14.004;2023-03-26T02:16:31;97498.97;;;12.87;52.15
3260;BME280;22469;48.150;14.004;2023-03-26T02:18:58;97506.28;;;12.77;52.53
3260;BME280;22469;48.150;14.004;2023-03-26T02:21:26;97502.66;;;12.81;52.34
3260;BME280;22469;48.150;14.004;2023-03-26T02:23:56;97512.59;;;12.89;51.85
3260;BME280;22469;48.150;14.004;2023-03-26T02:26:31;97495.31;;;12.74;52.06
3260;BME280;22469;48.150;14.004;2023-03-26T02:28:59;97509.00;;;12.74;52.22
3260;BME280;22469;48.150;14.004;2023-03-26T02:31:30;97505.56;;;12.93;51.89
3260;BME280;22469;48.150;14.004;2023-03-26T02:33:57;97506.91;;;12.83;52.16
3260;BME280;22469;48.150;14.004;2023-03-26T02:36:25;97496.75;;;12.62;52.23
3260;BME280;22469;48.150;14.004;2023-03-26T02:38:54;97499.06;;;12.86;52.30
3260;BME280;22469;48.150;14.004;2023-03-26T02:41:23;97493.97;;;12.84;51.93
3260;BME280;22469;48.150;14.004;2023-03-26T02:43:50;97516.13;;;12.52;53.20
3260;BME280;22469;48.150;14.004;2023-03-26T02:46:17;97502.66;;;12.81;52.41
3260;BME280;22469;48.150;14.004;2023-03-26T02:48:44;97505.75;;;13.05;52.16
3260;BME280;22469;48.150;14.004;2023-03-26T02:51:11;97495.84;;;13.15;51.76
3260;BME280;22469;48.150;14.004;2023-03-26T02:53:38;97489.69;;;13.18;51.39
3260;BME280;22469;48.150;14.004;2023-03-26T02:56:08;97488.63;;;13.22;51.55
3260;BME280;22469;48.150;14.004;2023-03-26T02:58:35;97487.44;;;13.29;51.29
3260;BME280;22469;48.150;14.004;2023-03-26T03:01:02;97476.00;;;13.35;51.07
3260;BME280;22469;48.150;14.004;2023-03-26T03:03:30;97475.75;;;13.39;50.99
3260;BME280;22469;48.150;14.004;2023-03-26T03:05:58;97481.00;;;13.38;51.08
3260;BME280;22469;48.150;14.004;2023-03-26T03:08:26;97485.78;;;13.28;51.03
3260;BME280;22469;48.150;14.004;2023-03-26T03:11:06;97491.78;;;12.94;51.32
3260;BME280;22469;48.150;14.004;2023-03-26T03:13:35;97490.94;;;12.93;51.92
3260;BME280;22469;48.150;14.004;2023-03-26T03:16:02;97492.97;;;12.87;51.88
3260;BME280;22469;48.150;14.004;2023-03-26T03:18:29;97493.28;;;12.80;52.18
3260;BME280;22469;48.150;14.004;2023-03-26T03:20:57;97483.28;;;12.74;52.58
3260;BME280;22469;48.150;14.004;2023-03-26T03:23:24;97485.84;;;12.74;52.75
3260;BME280;22469;48.150;14.004;2023-03-26T03:25:51;97492.75;;;12.91;52.31
3260;BME280;22469;48.150;14.004;2023-03-26T03:28:19;97494.66;;;12.88;52.49
3260;BME280;22469;48.150;14.004;2023-03-26T03:30:46;97487.53;;;12.75;52.49
3260;BME280;22469;48.150;14.004;2023-03-26T03:33:14;97489.94;;;12.78;52.86
3260;BME280;22469;48.150;14.004;2023-03-26T03:35:41;97483.75;;;12.83;52.32
3260;BME280;22469;48.150;14.004;2023-03-26T03:38:09;97483.44;;;12.89;52.59
3260;BME280;22469;48.150;14.004;2023-03-26T03:40:36;97475.81;;;12.87;52.56
3260;BME280;22469;48.150;14.004;2023-03-26T03:43:03;97487.16;;;12.83;52.18
3260;BME280;22469;48.150;14.004;2023-03-26T03:45:30;97491.91;;;12.73;52.69
3260;BME280;22469;48.150;14.004;2023-03-26T03:47:57;97482.75;;;12.68;52.64
3260;BME280;22469;48.150;14.004;2023-03-26T03:50:25;97480.31;;;12.65;52.50
3260;BME280;22469;48.150;14.004;2023-03-26T03:52:52;97480.56;;;12.60;52.64
3260;BME280;22469;48.150;14.004;2023-03-26T03:55:19;97488.72;;;12.51;52.57
3260;BME280;22469;48.150;14.004;2023-03-26T03:57:49;97485.47;;;11.92;53.97
3260;BME280;22469;48.150;14.004;2023-03-26T04:00:18;97484.84;;;12.06;53.79
3260;BME280;22469;48.150;14.004;2023-03-26T04:02:46;97478.72;;;12.08;53.32
3260;BME280;22469;48.150;14.004;2023-03-26T04:05:13;97465.66;;;12.13;53.01
3260;BME280;22469;48.150;14.004;2023-03-26T04:07:40;97468.78;;;11.82;54.01
3260;BME280;22469;48.150;14.004;2023-03-26T04:10:08;97474.34;;;11.54;54.75
3260;BME280;22469;48.150;14.004;2023-03-26T04:12:35;97475.88;;;11.77;54.34
3260;BME280;22469;48.150;14.004;2023-03-26T04:15:03;97482.91;;;11.73;53.85
3260;BME280;22469;48.150;14.004;2023-03-26T04:17:30;97478.47;;;11.96;53.81
3260;BME280;22469;48.150;14.004;2023-03-26T04:19:57;97479.84;;;12.03;53.69
3260;BME280;22469;48.150;14.004;2023-03-26T04:22:31;97481.16;;;11.74;54.09
3260;BME280;22469;48.150;14.004;2023-03-26T04:25:00;97477.91;;;11.89;54.14
3260;BME280;22469;48.150;14.004;2023-03-26T04:27:30;97461.38;;;11.95;54.03
3260;BME280;22469;48.150;14.004;2023-03-26T04:30:00;97455.59;;;11.90;54.41
3260;BME280;22469;48.150;14.004;2023-03-26T04:32:29;97454.69;;;11.72;55.41
3260;BME280;22469;48.150;14.004;2023-03-26T04:35:03;97451.78;;;11.98;54.39
3260;BME280;22469;48.150;14.004;2023-03-26T04:37:38;97440.72;;;12.15;54.18
3260;BME280;22469;48.150;14.004;2023-03-26T04:40:11;97443.00;;;12.21;53.34
3260;BME280;22469;48.150;14.004;2023-03-26T04:42:40;97443.44;;;12.12;53.34
3260;BME280;22469;48.150;14.004;2023-03-26T04:45:16;97447.38;;;12.19;53.58
3260;BME280;22469;48.150;14.004;2023-03-26T04:47:49;97443.56;;;12.09;53.49
3260;BME280;22469;48.150;14.004;2023-03-26T04:50:17;97446.44;;;12.03;53.67
3260;BME280;22469;48.150;14.004;2023-03-26T04:52:44;97453.94;;;12.07;53.40
3260;BME280;22469;48.150;14.004;2023-03-26T04:55:28;97444.19;;;12.14;53.56
3260;BME280;22469;48.150;14.004;2023-03-26T04:58:02;97433.84;;;12.16;53.28
3260;BME280;22469;48.150;14.004;2023-03-26T05:00:31;97431.25;;;12.16;53.51
3260;BME280;22469;48.150;14.004;2023-03-26T05:02:58;97438.16;;;12.15;53.72
3260;BME280;22469;48.150;14.004;2023-03-26T05:05:28;97440.03;;;12.12;53.90
3260;BME280;22469;48.150;14.004;2023-03-26T05:07:55;97440.41;;;12.04;53.70
3260;BME280;22469;48.150;14.004;2023-03-26T05:10:22;97435.41;;;12.01;54.27
3260;BME280;22469;48.150;14.004;2023-03-26T05:12:49;97424.22;;;12.02;53.71
3260;BME280;22469;48.150;14.004;2023-03-26T05:15:16;97420.03;;;11.99;53.80
3260;BME280;22469;48.150;14.004;2023-03-26T05:17:43;97433.13;;;11.95;54.42
3260;BME280;22469;48.150;14.004;2023-03-26T05:20:22;97432.16;;;11.97;54.19
3260;BME280;22469;48.150;14.004;2023-03-26T05:22:52;97435.81;;;11.92;54.21
3260;BME280;22469;48.150;14.004;2023-03-26T05:25:19;97424.16;;;11.84;54.22
3260;BME280;22469;48.150;14.004;2023-03-26T05:27:47;97430.00;;;11.88;54.27
3260;BME280;22469;48.150;14.004;2023-03-26T05:30:17;97424.09;;;11.86;54.76
3260;BME280;22469;48.150;14.004;2023-03-26T05:32:46;97422.06;;;11.93;54.97
3260;BME280;22469;48.150;14.004;2023-03-26T05:35:18;97410.66;;;11.98;54.52
3260;BME280;22469;48.150;14.004;2023-03-26T05:37:47;97420.03;;;11.99;53.91
3260;BME280;22469;48.150;14.004;2023-03-26T05:40:15;97421.63;;;12.02;54.20
3260;BME280;22469;48.150;14.004;2023-03-26T05:42:43;97416.91;;;12.12;54.23
3260;BME280;22469;48.150;14.004;2023-03-26T05:45:13;97421.75;;;12.18;54.31
3260;BME280;22469;48.150;14.004;2023-03-26T05:47:41;97422.50;;;12.20;53.90
3260;BME280;22469;48.150;14.004;2023-03-26T05:50:09;97419.78;;;12.23;53.76
3260;BME280;22469;48.150;14.004;2023-03-26T05:52:37;97429.47;;;12.18;53.75
3260;BME280;22469;48.150;14.004;2023-03-26T05:55:04;97428.56;;;12.19;53.90
3260;BME280;22469;48.150;14.004;2023-03-26T05:57:32;97432.03;;;12.18;54.06
3260;BME280;22469;48.150;14.004;2023-03-26T06:00:01;97428.25;;;12.25;53.47
3260;BME280;22469;48.150;14.004;2023-03-26T06:02:30;97434.06;;;12.11;53.64
3260;BME280;22469;48.150;14.004;2023-03-26T06:04:57;97430.69;;;12.28;53.26
3260;BME280;22469;48.150;14.004;2023-03-26T06:07:24;97433.66;;;12.38;54.15
3260;BME280;22469;48.150;14.004;2023-03-26T06:09:52;97434.16;;;12.44;53.60
3260;BME280;22469;48.150;14.004;2023-03-26T06:12:20;97439.78;;;12.52;52.94
3260;BME280;22469;48.150;14.004;2023-03-26T06:14:47;97427.34;;;12.61;54.16
3260;BME280;22469;48.150;14.004;2023-03-26T06:17:14;97428.50;;;12.55;53.63
3260;BME280;22469;48.150;14.004;2023-03-26T06:19:41;97427.22;;;12.64;53.88
3260;BME280;22469;48.150;14.004;2023-03-26T06:22:08;97426.97;;;12.68;53.98
3260;BME280;22469;48.150;14.004;2023-03-26T06:24:35;97422.97;;;12.80;53.92
3260;BME280;22469;48.150;14.004;2023-03-26T06:27:02;97421.06;;;12.84;53.88
3260;BME280;22469;48.150;14.004;2023-03-26T06:29:29;97422.28;;;12.94;53.73
3260;BME280;22469;48.150;14.004;2023-03-26T06:31:56;97409.97;;;12.99;53.98
3260;BME280;22469;48.150;14.004;2023-03-26T06:34:38;97418.91;;;13.09;53.83
3260;BME280;22469;48.150;14.004;2023-03-26T06:37:05;97416.31;;;13.09;53.29
3260;BME280;22469;48.150;14.004;2023-03-26T06:39:32;97418.53;;;13.17;53.79
3260;BME280;22469;48.150;14.004;2023-03-26T06:41:59;97417.00;;;13.30;53.29
3260;BME280;22469;48.150;14.004;2023-03-26T06:44:26;97409.38;;;13.44;52.90
3260;BME280;22469;48.150;14.004;2023-03-26T06:46:53;97400.91;;;13.58;52.60
3260;BME280;22469;48.150;14.004;2023-03-26T06:49:20;97407.81;;;13.58;51.67
3260;BME280;22469;48.150;14.004;2023-03-26T06:51:47;97398.44;;;13.23;51.52
3260;BME280;22469;48.150;14.004;2023-03-26T06:54:14;97390.69;;;13.41;52.09
3260;BME280;22469;48.150;14.004;2023-03-26T06:56:41;97385.94;;;13.65;51.53
3260;BME280;22469;48.150;14.004;2023-03-26T06:59:08;97383.53;;;13.62;51.23
3260;BME280;22469;48.150;14.004;2023-03-26T07:01:35;97384.66;;;13.88;51.67
3260;BME280;22469;48.150;14.004;2023-03-26T07:04:02;97388.00;;;13.90;51.34
3260;BME280;22469;48.150;14.004;2023-03-26T07:06:31;97383.66;;;14.06;51.46
3260;BME280;22469;48.150;14.004;2023-03-26T07:08:58;97377.53;;;13.93;50.85
3260;BME280;22469;48.150;14.004;2023-03-26T07:11:25;97379.50;;;14.04;51.32
3260;BME280;22469;48.150;14.004;2023-03-26T07:13:52;97374.66;;;14.13;50.80
3260;BME280;22469;48.150;14.004;2023-03-26T07:16:21;97373.69;;;13.84;51.57
3260;BME280;22469;48.150;14.004;2023-03-26T07:18:49;97366.72;;;13.86;51.38
3260;BME280;22469;48.150;14.004;2023-03-26T07:21:17;97360.84;;;13.68;51.51
3260;BME280;22469;48.150;14.004;2023-03-26T07:23:45;97358.44;;;13.81;51.70
3260;BME280;22469;48.150;14.004;2023-03-26T07:26:30;97355.25;;;13.76;51.85
3260;BME280;22469;48.150;14.004;2023-03-26T07:29:07;97355.66;;;14.30;51.38
3260;BME280;22469;48.150;14.004;2023-03-26T07:32:07;97344.19;;;13.74;51.28
3260;BME280;22469;48.150;14.004;2023-03-26T07:43:59;97329.56;;;14.05;49.79
3260;BME280;22469;48.150;14.004;2023-03-26T07:46:30;97325.34;;;13.58;51.23
3260;BME280;22469;48.150;14.004;2023-03-26T07:49:00;97319.00;;;13.63;51.87
3260;BME280;22469;48.150;14.004;2023-03-26T07:51:31;97317.19;;;13.81;51.19
3260;BME280;22469;48.150;14.004;2023-03-26T07:53:58;97311.06;;;13.68;51.79
3260;BME280;22469;48.150;14.004;2023-03-26T07:56:38;97306.59;;;13.86;50.52
3260;BME280;22469;48.150;14.004;2023-03-26T07:59:32;97302.81;;;14.52;50.61
3260;BME280;22469;48.150;14.004;2023-03-26T08:05:04;97294.19;;;14.22;49.18
3260;BME280;22469;48.150;14.004;2023-03-26T08:10:34;97271.19;;;14.62;48.05
3260;BME280;22469;48.150;14.004;2023-03-26T08:22:14;97256.97;;;15.39;46.42
3260;BME280;22469;48.150;14.004;2023-03-26T08:27:36;97255.31;;;14.40;47.31
3260;BME280;22469;48.150;14.004;2023-03-26T08:30:22;97251.66;;;14.58;47.58
3260;BME280;22469;48.150;14.004;2023-03-26T08:32:59;97233.97;;;15.22;46.70
3260;BME280;22469;48.150;14.004;2023-03-26T08:35:37;97225.72;;;15.57;45.84
3260;BME280;22469;48.150;14.004;2023-03-26T08:38:16;97220.41;;;15.46;45.30
3260;BME280;22469;48.150;14.004;2023-03-26T09:12:25;97149.53;;;14.96;42.16
3260;BME280;22469;48.150;14.004;2023-03-26T09:30:26;97089.50;;;16.95;41.84
3260;BME280;22469;48.150;14.004;2023-03-26T09:35:54;97064.53;;;16.94;40.70
3260;BME280;22469;48.150;14.004;2023-03-26T09:50:24;97052.22;;;17.44;39.17
3260;BME280;22469;48.150;14.004;2023-03-26T09:56:58;97043.13;;;17.49;39.24
3260;BME280;22469;48.150;14.004;2023-03-26T10:05:25;97026.16;;;17.45;39.82
3260;BME280;22469;48.150;14.004;2023-03-26T10:34:38;96956.72;;;17.60;38.15
3260;BME280;22469;48.150;14.004;2023-03-26T10:40:32;96955.13;;;17.82;38.06
3260;BME280;22469;48.150;14.004;2023-03-26T10:46:17;96951.19;;;17.87;37.28
3260;BME280;22469;48.150;14.004;2023-03-26T10:52:00;96928.22;;;17.83;38.12
3260;BME280;22469;48.150;14.004;2023-03-26T10:59:49;96904.66;;;17.52;37.04
3260;BME280;22469;48.150;14.004;2023-03-26T11:08:41;96921.00;;;17.97;36.98
3260;BME280;22469;48.150;14.004;2023-03-26T11:30:09;96941.19;;;17.60;38.00
3260;BME280;22469;48.150;14.004;2023-03-26T11:32:44;96951.78;;;17.35;38.40
3260;BME280;22469;48.150;14.004;2023-03-26T11:38:20;96963.66;;;17.03;40.00
3260;BME280;22469;48.150;14.004;2023-03-26T11:40:53;96972.72;;;16.98;39.54
3260;BME280;22469;48.150;14.004;2023-03-26T11:43:27;96987.03;;;16.55;40.05
3260;BME280;22469;48.150;14.004;2023-03-26T11:45:57;96996.78;;;16.76;40.40
3260;BME280;22469;48.150;14.004;2023-03-26T11:48:41;97001.88;;;16.65;40.24
3260;BME280;22469;48.150;14.004;2023-03-26T11:51:28;96988.28;;;16.26;40.96
3260;BME280;22469;48.150;14.004;2023-03-26T11:54:01;96954.38;;;16.42;41.85
3260;BME280;22469;48.150;14.004;2023-03-26T11:59:38;96980.03;;;16.45;41.31
3260;BME280;22469;48.150;14.004;2023-03-26T12:02:23;96960.00;;;16.71;41.03
3260;BME280;22469;48.150;14.004;2023-03-26T12:07:52;96932.06;;;16.98;42.17
3260;BME280;22469;48.150;14.004;2023-03-26T12:10:26;96921.50;;;17.01;40.39
3260;BME280;22469;48.150;14.004;2023-03-26T12:13:02;96916.06;;;16.82;40.65
3260;BME280;22469;48.150;14.004;2023-03-26T12:16:03;96907.72;;;17.01;40.45
3260;BME280;22469;48.150;14.004;2023-03-26T12:18:36;96916.81;;;17.07;39.46
3260;BME280;22469;48.150;14.004;2023-03-26T12:21:09;96915.50;;;17.12;39.39
3260;BME280;22469;48.150;14.004;2023-03-26T12:26:42;96908.31;;;17.16;39.73
3260;BME280;22469;48.150;14.004;2023-03-26T12:29:16;96902.66;;;17.11;39.99
3260;BME280;22469;48.150;14.004;2023-03-26T12:31:53;96899.72;;;17.15;40.46
3260;BME280;22469;48.150;14.004;2023-03-26T12:34:33;96900.06;;;17.22;40.05
3260;BME280;22469;48.150;14.004;2023-03-26T12:37:03;96893.94;;;17.23;40.95
3260;BME280;22469;48.150;14.004;2023-03-26T12:39:42;96902.56;;;17.35;40.53
3260;BME280;22469;48.150;14.004;2023-03-26T12:42:31;96897.16;;;17.26;40.77
3260;BME280;22469;48.150;14.004;2023-03-26T12:45:53;96897.94;;;17.16;39.92
3260;BME280;22469;48.150;14.004;2023-03-26T12:48:41;96904.78;;;17.17;40.36
3260;BME280;22469;48.150;14.004;2023-03-26T12:54:26;96902.31;;;16.93;42.21
3260;BME280;22469;48.150;14.004;2023-03-26T12:57:18;96902.34;;;16.69;42.25
3260;BME280;22469;48.150;14.004;2023-03-26T13:12:38;96903.44;;;15.57;46.06
3260;BME280;22469;48.150;14.004;2023-03-26T13:15:27;96906.91;;;15.82;48.73
3260;BME280;22469;48.150;14.004;2023-03-26T13:21:10;96908.53;;;15.59;50.39
3260;BME280;22469;48.150;14.004;2023-03-26T13:29:27;96876.66;;;14.96;52.42
3260;BME280;22469;48.150;14.004;2023-03-26T13:35:48;96868.69;;;15.25;52.20
3260;BME280;22469;48.150;14.004;2023-03-26T13:47:26;96870.69;;;14.96;52.86
3260;BME280;22469;48.150;14.004;2023-03-26T13:50:17;96859.41;;;15.22;52.11
3260;BME280;22469;48.150;14.004;2023-03-26T13:53:13;96858.25;;;15.01;53.21
3260;BME280;22469;48.150;14.004;2023-03-26T13:56:04;96863.16;;;14.67;53.40
3260;BME280;22469;48.150;14.004;2023-03-26T14:01:19;96864.81;;;14.81;55.46
3260;BME280;22469;48.150;14.004;2023-03-26T14:10:00;96873.84;;;13.40;58.06
3260;BME280;22469;48.150;14.004;2023-03-26T14:15:55;96839.03;;;13.61;59.82
3260;BME280;22469;48.150;14.004;2023-03-26T14:18:43;96826.97;;;13.89;59.02
3260;BME280;22469;48.150;14.004;2023-03-26T14:35:23;96817.78;;;14.37;56.99
3260;BME280;22469;48.150;14.004;2023-03-26T14:47:15;96803.78;;;14.54;55.84
3260;BME280;22469;48.150;14.004;2023-03-26T14:53:28;96797.97;;;14.89;54.02
3260;BME280;22469;48.150;14.004;2023-03-26T15:13:54;96765.78;;;14.56;54.21
3260;BME280;22469;48.150;14.004;2023-03-26T15:42:18;96774.53;;;14.03;54.60
3260;BME280;22469;48.150;14.004;2023-03-26T15:48:33;96769.78;;;14.35;53.67
3260;BME280;22469;48.150;14.004;2023-03-26T15:54:37;96756.19;;;14.71;52.83
3260;BME280;22469;48.150;14.004;2023-03-26T15:57:31;96769.16;;;14.06;52.40
3260;BME280;22469;48.150;14.004;2023-03-26T16:00:23;96772.16;;;13.99;52.68
3260;BME280;22469;48.150;14.004;2023-03-26T16:03:13;96769.25;;;13.91;52.45
3260;BME280;22469;48.150;14.004;2023-03-26T16:14:46;96751.03;;;13.67;52.94
3260;BME280;22469;48.150;14.004;2023-03-26T16:20:48;96777.53;;;14.22;52.12
3260;BME280;22469;48.150;14.004;2023-03-26T16:29:20;96780.09;;;14.22;52.76
3260;BME280;22469;48.150;14.004;2023-03-26T16:45:28;96780.31;;;14.44;52.35
3260;BME280;22469;48.150;14.004;2023-03-26T16:48:28;96776.31;;;14.28;52.61
3260;BME280;22469;48.150;14.004;2023-03-26T17:02:45;96788.59;;;14.62;51.94
3260;BME280;22469;48.150;14.004;2023-03-26T17:08:26;96772.28;;;14.23;53.42
3260;BME280;22469;48.150;14.004;2023-03-26T17:11:26;96772.09;;;14.39;53.67
3260;BME280;22469;48.150;14.004;2023-03-26T17:14:15;96744.66;;;14.51;53.70
3260;BME280;22469;48.150;14.004;2023-03-26T17:25:36;96739.75;;;13.83;54.42
3260;BME280;22469;48.150;14.004;2023-03-26T17:34:59;96728.34;;;14.12;53.45
3260;BME280;22469;48.150;14.004;2023-03-26T17:37:39;96737.41;;;14.31;52.73
3260;BME280;22469;48.150;14.004;2023-03-26T17:43:11;96733.69;;;14.22;52.73
3260;BME280;22469;48.150;14.004;2023-03-26T17:51:51;96740.47;;;13.85;52.66
3260;BME280;22469;48.150;14.004;2023-03-26T17:54:53;96746.78;;;14.06;52.01
3260;BME280;22469;48.150;14.004;2023-03-26T17:57:26;96739.56;;;13.98;52.40
3260;BME280;22469;48.150;14.004;2023-03-26T17:59:57;96730.16;;;13.97;52.59
3260;BME280;22469;48.150;14.004;2023-03-26T18:02:33;96724.81;;;13.48;53.16
3260;BME280;22469;48.150;14.004;2023-03-26T18:05:10;96718.22;;;13.44;53.28
3260;BME280;22469;48.150;14.004;2023-03-26T18:07:54;96711.09;;;13.35;53.90
3260;BME280;22469;48.150;14.004;2023-03-26T18:16:53;96682.63;;;14.02;52.60
3260;BME280;22469;48.150;14.004;2023-03-26T18:19:21;96682.63;;;14.14;52.36
3260;BME280;22469;48.150;14.004;2023-03-26T18:21:55;96686.44;;;14.21;52.53
3260;BME280;22469;48.150;14.004;2023-03-26T18:24:30;96694.72;;;14.27;52.11
3260;BME280;22469;48.150;14.004;2023-03-26T18:27:10;96703.06;;;14.30;52.13
3260;BME280;22469;48.150;14.004;2023-03-26T18:29:43;96711.41;;;14.34;51.68
3260;BME280;22469;48.150;14.004;2023-03-26T18:34:45;96714.28;;;14.42;51.75
3260;BME280;22469;48.150;14.004;2023-03-26T18:37:32;96723.69;;;14.43;51.29
3260;BME280;22469;48.150;14.004;2023-03-26T18:40:12;96732.13;;;14.32;51.94
3260;BME280;22469;48.150;14.004;2023-03-26T18:42:46;96723.56;;;14.32;52.26
3260;BME280;22469;48.150;14.004;2023-03-26T18:45:30;96709.66;;;14.34;52.49
3260;BME280;22469;48.150;14.004;2023-03-26T18:48:14;96712.44;;;14.31;52.97
3260;BME280;22469;48.150;14.004;2023-03-26T18:50:46;96706.88;;;14.25;52.43
3260;BME280;22469;48.150;14.004;2023-03-26T18:53:22;96695.53;;;14.27;52.53
3260;BME280;22469;48.150;14.004;2023-03-26T18:55:51;96690.16;;;14.30;52.23
3260;BME280;22469;48.150;14.004;2023-03-26T18:58:28;96687.25;;;14.35;52.09
3260;BME280;22469;48.150;14.004;2023-03-26T19:03:40;96686.22;;;14.37;52.39
3260;BME280;22469;48.150;14.004;2023-03-26T19:06:12;96682.91;;;14.35;52.62
3260;BME280;22469;48.150;14.004;2023-03-26T19:08:42;96693.56;;;14.31;52.58
3260;BME280;22469;48.150;14.004;2023-03-26T19:11:15;96691.91;;;14.30;52.62
3260;BME280;22469;48.150;14.004;2023-03-26T19:13:49;96698.59;;;14.32;53.18
3260;BME280;22469;48.150;14.004;2023-03-26T19:16:27;96692.66;;;14.19;53.57
3260;BME280;22469;48.150;14.004;2023-03-26T19:19:02;96690.69;;;13.97;53.65
3260;BME280;22469;48.150;14.004;2023-03-26T19:21:33;96687.16;;;13.98;53.47
3260;BME280;22469;48.150;14.004;2023-03-26T19:24:01;96679.16;;;14.03;53.47
3260;BME280;22469;48.150;14.004;2023-03-26T19:26:29;96669.25;;;14.09;53.46
3260;BME280;22469;48.150;14.004;2023-03-26T19:28:57;96670.47;;;14.04;53.62
3260;BME280;22469;48.150;14.004;2023-03-26T19:31:34;96663.25;;;14.09;53.25
3260;BME280;22469;48.150;14.004;2023-03-26T19:39:42;96643.34;;;14.11;53.28
3260;BME280;22469;48.150;14.004;2023-03-26T19:45:17;96632.22;;;14.10;53.36
3260;BME280;22469;48.150;14.004;2023-03-26T19:47:47;96633.34;;;14.06;53.56
3260;BME280;22469;48.150;14.004;2023-03-26T19:50:40;96635.09;;;14.06;53.81
3260;BME280;22469;48.150;14.004;2023-03-26T19:58:20;96630.97;;;14.03;53.53
3260;BME280;22469;48.150;14.004;2023-03-26T20:00:47;96637.69;;;14.06;53.49
3260;BME280;22469;48.150;14.004;2023-03-26T20:03:15;96629.94;;;14.06;53.50
3260;BME280;22469;48.150;14.004;2023-03-26T20:05:49;96633.34;;;14.06;53.80
3260;BME280;22469;48.150;14.004;2023-03-26T20:08:16;96632.53;;;14.06;53.56
3260;BME280;22469;48.150;14.004;2023-03-26T20:10:44;96625.81;;;14.03;53.74
3260;BME280;22469;48.150;14.004;2023-03-26T20:13:14;96632.75;;;14.03;54.19
3260;BME280;22469;48.150;14.004;2023-03-26T20:16:31;96630.56;;;13.96;54.54
3260;BME280;22469;48.150;14.004;2023-03-26T20:18:50;96642.44;;;13.86;54.61
3260;BME280;22469;48.150;14.004;2023-03-26T20:21:17;96643.56;;;13.82;54.60
3260;BME280;22469;48.150;14.004;2023-03-26T20:23:44;96649.00;;;13.78;54.57
3260;BME280;22469;48.150;14.004;2023-03-26T20:26:14;96660.25;;;13.77;54.43
3260;BME280;22469;48.150;14.004;2023-03-26T20:28:42;96657.88;;;13.73;54.35
3260;BME280;22469;48.150;14.004;2023-03-26T20:31:20;96660.25;;;13.77;54.21
3260;BME280;22469;48.150;14.004;2023-03-26T20:33:53;96665.31;;;13.65;54.59